Time,TemperatureF,DewpointF,PressureIn,WindDirection,WindDirectionDegrees,WindSpeedMPH,WindSpeedGustMPH,Humidity,HourlyPrecipIn,Conditions,Clouds,dailyrainin,SoftwareType,DateUTC
2013-02-18 00:02:00,57.0,47.0,29.89,SSE,165,8.0,15.0,69,0.00,,,0.00,,2013-02-18 06:02:00,
2013-02-18 00:11:00,57.0,47.0,29.89,SSE,165,8.0,15.0,69,0.00,,,0.00,,2013-02-18 06:11:00,
2013-02-18 00:21:00,56.0,46.0,29.88,SE,146,10.0,21.0,70,0.00,,,0.00,,2013-02-18 06:21:00,
2013-02-18 00:32:00,56.0,47.0,29.88,SSE,149,12.0,25.0,71,0.00,,,0.00,,2013-02-18 06:32:00,
2013-02-18 00:41:00,56.0,47.0,29.88,SSE,159,9.0,20.0,71,0.00,,,0.00,,2013-02-18 06:41:00,
2013-02-18 00:52:00,56.0,47.0,29.88,SSE,159,9.0,20.0,71,0.00,,,0.00,,2013-02-18 06:52:00,
2013-02-18 01:01:00,56.0,47.0,29.87,SSE,151,9.0,20.0,72,0.00,,,0.00,,2013-02-18 07:01:00,
2013-02-18 01:11:00,56.0,47.0,29.87,SSE,151,9.0,20.0,72,0.00,,,0.00,,2013-02-18 07:11:00,
2013-02-18 01:21:00,55.0,47.0,29.86,SSE,165,11.0,20.0,73,0.00,,,0.00,,2013-02-18 07:21:00,
2013-02-18 01:32:00,55.0,47.0,29.86,South,180,9.0,18.0,74,0.00,,,0.00,,2013-02-18 07:32:00,
2013-02-18 01:42:00,55.0,47.0,29.86,South,180,9.0,18.0,74,0.00,,,0.00,,2013-02-18 07:42:00,
2013-02-18 01:52:00,56.0,48.0,29.85,SE,144,11.0,18.0,75,0.00,,,0.00,,2013-02-18 07:52:00,
2013-02-18 02:01:00,56.0,48.0,29.84,SSE,153,10.0,23.0,75,0.00,,,0.00,,2013-02-18 08:01:00,
2013-02-18 02:11:00,56.0,49.0,29.84,SE,144,10.0,21.0,76,0.00,,,0.00,,2013-02-18 08:11:00,
2013-02-18 02:21:00,56.0,49.0,29.84,SE,144,10.0,21.0,76,0.00,,,0.00,,2013-02-18 08:21:00,
2013-02-18 02:32:00,56.0,49.0,29.84,SE,142,7.0,20.0,76,0.00,,,0.00,,2013-02-18 08:32:00,
2013-02-18 02:42:00,56.0,49.0,29.84,SE,142,7.0,20.0,76,0.00,,,0.00,,2013-02-18 08:42:00,
2013-02-18 02:52:00,56.0,49.0,29.83,SE,145,7.0,14.0,77,0.00,,,0.00,,2013-02-18 08:52:00,
2013-02-18 03:02:00,57.0,50.0,29.83,SSE,150,9.0,18.0,77,0.00,,,0.00,,2013-02-18 09:02:00,
2013-02-18 03:11:00,57.0,50.0,29.83,SSE,150,9.0,18.0,77,0.00,,,0.00,,2013-02-18 09:11:00,
2013-02-18 03:22:00,57.0,50.0,29.82,SE,146,11.0,24.0,78,0.00,,,0.00,,2013-02-18 09:22:00,
2013-02-18 03:31:00,57.0,50.0,29.81,SE,141,12.0,23.0,78,0.00,,,0.00,,2013-02-18 09:31:00,
2013-02-18 03:41:00,57.0,50.0,29.81,SE,141,12.0,23.0,78,0.00,,,0.00,,2013-02-18 09:41:00,
2013-02-18 03:52:00,58.0,51.0,29.81,South,173,7.0,15.0,78,0.00,,,0.00,,2013-02-18 09:52:00,
2013-02-18 04:01:00,58.0,51.0,29.80,SSE,158,12.0,20.0,78,0.00,,,0.00,,2013-02-18 10:01:00,
2013-02-18 04:11:00,58.0,51.0,29.80,SSE,158,12.0,20.0,78,0.00,,,0.00,,2013-02-18 10:11:00,
2013-02-18 04:21:00,59.0,52.0,29.80,SSE,149,10.0,20.0,78,0.00,,,0.00,,2013-02-18 10:21:00,
2013-02-18 04:31:00,59.0,52.0,29.79,SSE,152,8.0,18.0,78,0.00,,,0.00,,2013-02-18 10:31:00,
2013-02-18 04:42:00,59.0,52.0,29.79,SSE,152,8.0,18.0,78,0.00,,,0.00,,2013-02-18 10:42:00,
2013-02-18 04:53:00,59.0,52.0,29.79,SE,144,11.0,20.0,78,0.00,,,0.00,,2013-02-18 10:53:00,
2013-02-18 05:01:00,59.0,52.0,29.78,SE,144,9.0,22.0,79,0.00,,,0.00,,2013-02-18 11:01:00,
2013-02-18 05:11:00,59.0,52.0,29.78,SE,144,9.0,22.0,79,0.00,,,0.00,,2013-02-18 11:11:00,
2013-02-18 05:22:00,59.0,52.0,29.78,SE,137,9.0,18.0,79,0.00,,,0.00,,2013-02-18 11:22:00,
2013-02-18 05:32:00,59.0,53.0,29.78,SSE,152,9.0,18.0,80,0.00,,,0.00,,2013-02-18 11:32:00,
2013-02-18 05:42:00,59.0,53.0,29.78,SSE,152,9.0,18.0,80,0.00,,,0.00,,2013-02-18 11:42:00,
2013-02-18 05:53:00,59.0,53.0,29.77,South,173,11.0,18.0,80,0.00,,,0.00,,2013-02-18 11:53:00,
2013-02-18 06:02:00,59.0,53.0,29.77,SSE,156,10.0,20.0,80,0.00,,,0.00,,2013-02-18 12:02:00,
2013-02-18 06:22:00,59.0,53.0,29.77,SSE,156,9.0,20.0,81,0.00,,,0.00,,2013-02-18 12:22:00,
2013-02-18 06:32:00,58.0,53.0,29.76,SSE,164,12.0,23.0,82,0.00,,,0.00,,2013-02-18 12:32:00,
2013-02-18 06:42:00,58.0,53.0,29.76,SSE,164,12.0,23.0,82,0.00,,,0.00,,2013-02-18 12:42:00,
2013-02-18 06:53:00,58.0,53.0,29.76,SSE,151,11.0,21.0,82,0.00,,,0.00,,2013-02-18 12:53:00,
2013-02-18 07:02:00,58.0,53.0,29.76,South,170,12.0,22.0,83,0.00,,,0.00,,2013-02-18 13:02:00,
2013-02-18 07:12:00,58.0,53.0,29.76,South,170,12.0,22.0,83,0.00,,,0.00,,2013-02-18 13:12:00,
2013-02-18 07:22:00,58.0,53.0,29.77,SSE,158,8.0,20.0,83,0.00,,,0.00,,2013-02-18 13:22:00,
2013-02-18 07:32:00,58.0,53.0,29.78,SSE,162,10.0,15.0,83,0.00,,,0.00,,2013-02-18 13:32:00,
2013-02-18 07:42:00,58.0,53.0,29.78,SSE,162,10.0,15.0,83,0.00,,,0.00,,2013-02-18 13:42:00,
2013-02-18 07:53:00,58.0,53.0,29.78,SSE,152,9.0,14.0,84,0.00,,,0.00,,2013-02-18 13:53:00,
2013-02-18 08:02:00,58.0,53.0,29.78,SSE,147,10.0,15.0,84,0.00,,,0.00,,2013-02-18 14:02:00,
2013-02-18 08:11:00,58.0,53.0,29.78,SSE,147,10.0,15.0,84,0.00,,,0.00,,2013-02-18 14:11:00,
2013-02-18 08:22:00,59.0,54.0,29.78,SSE,163,10.0,20.0,84,0.00,,,0.00,,2013-02-18 14:22:00,
2013-02-18 08:41:00,59.0,54.0,29.78,SSE,153,9.0,18.0,83,0.00,,,0.00,,2013-02-18 14:41:00,
2013-02-18 08:53:00,61.0,55.0,29.78,SE,133,7.0,16.0,82,0.00,,,0.00,,2013-02-18 14:53:00,
2013-02-18 09:02:00,62.0,56.0,29.77,SE,146,10.0,22.0,80,0.00,,,0.00,,2013-02-18 15:02:00,
2013-02-18 09:11:00,62.0,56.0,29.77,SE,146,10.0,22.0,80,0.00,,,0.00,,2013-02-18 15:11:00,
2013-02-18 09:22:00,63.0,56.0,29.78,SSE,166,16.0,26.0,78,0.00,,,0.00,,2013-02-18 15:22:00,
2013-02-18 09:32:00,64.0,57.0,29.78,SSW,196,13.0,23.0,77,0.00,,,0.00,,2013-02-18 15:32:00,
2013-02-18 09:42:00,64.0,57.0,29.78,SSW,196,13.0,23.0,77,0.00,,,0.00,,2013-02-18 15:42:00,
2013-02-18 09:52:00,64.0,56.0,29.78,South,169,16.0,30.0,75,0.00,,,0.00,,2013-02-18 15:52:00,
2013-02-18 10:02:00,65.0,56.0,29.78,SSE,164,14.0,26.0,74,0.00,,,0.00,,2013-02-18 16:02:00,
2013-02-18 10:12:00,65.0,56.0,29.78,SSE,164,14.0,26.0,74,0.00,,,0.00,,2013-02-18 16:12:00,
2013-02-18 10:22:00,66.0,57.0,29.77,South,172,13.0,26.0,72,0.00,,,0.00,,2013-02-18 16:22:00,
2013-02-18 10:32:00,67.0,56.0,29.77,South,184,20.0,32.0,69,0.00,,,0.00,,2013-02-18 16:32:00,
2013-02-18 10:42:00,67.0,56.0,29.77,South,184,20.0,32.0,69,0.00,,,0.00,,2013-02-18 16:42:00,
2013-02-18 10:53:00,68.0,57.0,29.77,SSW,211,20.0,35.0,67,0.00,,,0.00,,2013-02-18 16:53:00,
2013-02-18 11:03:00,69.0,56.0,29.77,SSW,200,18.0,31.0,64,0.00,,,0.00,,2013-02-18 17:03:00,
2013-02-18 11:12:00,69.0,56.0,29.77,SSW,200,18.0,31.0,64,0.00,,,0.00,,2013-02-18 17:12:00,
2013-02-18 11:22:00,70.0,55.0,29.77,South,191,18.0,31.0,60,0.00,,,0.00,,2013-02-18 17:22:00,
2013-02-18 11:32:00,70.0,55.0,29.77,SSW,212,21.0,35.0,58,0.00,,,0.00,,2013-02-18 17:32:00,
2013-02-18 11:42:00,70.0,55.0,29.77,SSW,212,21.0,35.0,58,0.00,,,0.00,,2013-02-18 17:42:00,
2013-02-18 11:53:00,71.0,54.0,29.77,South,188,12.0,24.0,56,0.00,,,0.00,,2013-02-18 17:53:00,
2013-02-18 12:02:00,72.0,54.0,29.77,SW,227,14.0,26.0,53,0.00,,,0.00,,2013-02-18 18:02:00,
2013-02-18 12:12:00,72.0,54.0,29.77,SW,227,14.0,26.0,53,0.00,,,0.00,,2013-02-18 18:12:00,
2013-02-18 12:22:00,73.0,52.0,29.76,SSW,207,12.0,21.0,48,0.00,,,0.00,,2013-02-18 18:22:00,
2013-02-18 12:32:00,74.0,51.0,29.76,SSW,208,16.0,28.0,44,0.00,,,0.00,,2013-02-18 18:32:00,
2013-02-18 12:42:00,74.0,51.0,29.76,SSW,208,16.0,28.0,44,0.00,,,0.00,,2013-02-18 18:42:00,
2013-02-18 12:53:00,74.0,51.0,29.75,West,266,14.0,28.0,44,0.00,,,0.00,,2013-02-18 18:53:00,
2013-02-18 13:02:00,75.0,49.0,29.75,SW,226,13.0,28.0,40,0.00,,,0.00,,2013-02-18 19:02:00,
2013-02-18 13:12:00,75.0,49.0,29.75,SW,226,13.0,28.0,40,0.00,,,0.00,,2013-02-18 19:12:00,
2013-02-18 13:22:00,75.0,48.0,29.75,SW,217,12.0,26.0,38,0.00,,,0.00,,2013-02-18 19:22:00,
2013-02-18 13:33:00,75.0,46.0,29.74,SSE,156,12.0,26.0,36,0.00,,,0.00,,2013-02-18 19:33:00,
2013-02-18 13:42:00,75.0,46.0,29.74,SSE,156,12.0,26.0,36,0.00,,,0.00,,2013-02-18 19:42:00,
2013-02-18 13:53:00,76.0,46.0,29.73,SSW,210,14.0,25.0,35,0.00,,,0.00,,2013-02-18 19:53:00,
2013-02-18 14:02:00,76.0,46.0,29.74,West,281,12.0,22.0,35,0.00,,,0.00,,2013-02-18 20:02:00,
2013-02-18 14:22:00,76.0,44.0,29.74,WSW,240,10.0,21.0,32,0.00,,,0.00,,2013-02-18 20:22:00,
2013-02-18 14:33:00,77.0,42.0,29.75,West,273,10.0,20.0,29,0.00,,,0.00,,2013-02-18 20:33:00,
2013-02-18 14:42:00,77.0,42.0,29.75,West,273,10.0,20.0,29,0.00,,,0.00,,2013-02-18 20:42:00,
2013-02-18 14:53:00,72.0,41.0,29.77,NW,309,17.0,28.0,32,0.00,,,0.00,,2013-02-18 20:53:00,
2013-02-18 15:02:00,71.0,40.0,29.78,NW,309,19.0,30.0,32,0.00,,,0.00,,2013-02-18 21:02:00,
2013-02-18 15:12:00,71.0,40.0,29.78,NW,309,19.0,30.0,32,0.00,,,0.00,,2013-02-18 21:12:00,
2013-02-18 15:22:00,69.0,38.0,29.79,NW,310,17.0,30.0,32,0.00,,,0.00,,2013-02-18 21:22:00,
2013-02-18 15:32:00,68.0,37.0,29.81,WNW,293,18.0,31.0,32,0.00,,,0.00,,2013-02-18 21:32:00,
2013-02-18 15:42:00,68.0,37.0,29.81,WNW,293,18.0,31.0,32,0.00,,,0.00,,2013-02-18 21:42:00,
2013-02-18 16:02:00,67.0,37.0,29.83,NW,315,18.0,29.0,33,0.00,,,0.00,,2013-02-18 22:02:00,
2013-02-18 16:12:00,66.0,38.0,29.84,NW,306,16.0,29.0,35,0.00,,,0.00,,2013-02-18 22:12:00,
2013-02-18 16:22:00,66.0,38.0,29.84,NW,306,16.0,29.0,35,0.00,,,0.00,,2013-02-18 22:22:00,
2013-02-18 16:33:00,65.0,37.0,29.85,NW,309,17.0,28.0,35,0.00,,,0.00,,2013-02-18 22:33:00,
2013-02-18 16:42:00,65.0,37.0,29.85,NW,309,17.0,28.0,35,0.00,,,0.00,,2013-02-18 22:42:00,
2013-02-18 16:53:00,65.0,37.0,29.86,NW,304,14.0,23.0,36,0.00,,,0.00,,2013-02-18 22:53:00,
2013-02-18 17:02:00,64.0,37.0,29.86,NW,321,16.0,25.0,37,0.00,,,0.00,,2013-02-18 23:02:00,
2013-02-18 17:12:00,64.0,37.0,29.86,NW,321,16.0,25.0,37,0.00,,,0.00,,2013-02-18 23:12:00,
2013-02-18 17:22:00,64.0,37.0,29.87,NW,318,15.0,24.0,37,0.00,,,0.00,,2013-02-18 23:22:00,
2013-02-18 17:32:00,64.0,37.0,29.88,WNW,303,11.0,25.0,37,0.00,,,0.00,,2013-02-18 23:32:00,
2013-02-18 17:42:00,64.0,37.0,29.88,WNW,303,11.0,25.0,37,0.00,,,0.00,,2013-02-18 23:42:00,
2013-02-18 17:52:00,63.0,36.0,29.89,West,277,14.0,24.0,37,0.00,,,0.00,,2013-02-18 23:52:00,
2013-02-18 18:03:00,62.0,35.0,29.90,WNW,303,14.0,24.0,37,0.00,,,0.00,,2013-02-19 00:03:00,
2013-02-18 18:12:00,62.0,35.0,29.90,WNW,303,14.0,24.0,37,0.00,,,0.00,,2013-02-19 00:12:00,
2013-02-18 18:22:00,62.0,36.0,29.90,WNW,297,15.0,23.0,38,0.00,,,0.00,,2013-02-19 00:22:00,
2013-02-18 18:33:00,61.0,36.0,29.92,WNW,282,12.0,20.0,39,0.00,,,0.00,,2013-02-19 00:33:00,
2013-02-18 18:42:00,61.0,36.0,29.92,WNW,282,12.0,20.0,39,0.00,,,0.00,,2013-02-19 00:42:00,
2013-02-18 18:53:00,61.0,36.0,29.94,WNW,294,9.0,15.0,40,0.00,,,0.00,,2013-02-19 00:53:00,
2013-02-18 19:03:00,60.0,36.0,29.95,WNW,298,10.0,18.0,41,0.00,,,0.00,,2013-02-19 01:03:00,
2013-02-18 19:23:00,60.0,37.0,29.96,NW,320,11.0,21.0,42,0.00,,,0.00,,2013-02-19 01:23:00,
2013-02-18 19:33:00,59.0,36.0,29.97,NW,311,12.0,16.0,42,0.00,,,0.00,,2013-02-19 01:33:00,
2013-02-18 19:43:00,59.0,36.0,29.97,NW,311,12.0,16.0,42,0.00,,,0.00,,2013-02-19 01:43:00,
2013-02-18 19:55:00,59.0,37.0,29.98,WNW,297,10.0,15.0,43,0.00,,,0.00,,2013-02-19 01:55:00,
2013-02-18 20:02:00,58.0,36.0,29.99,NW,317,10.0,15.0,43,0.00,,,0.00,,2013-02-19 02:02:00,
2013-02-18 20:13:00,58.0,36.0,29.99,NW,317,10.0,15.0,43,0.00,,,0.00,,2013-02-19 02:13:00,
2013-02-18 20:22:00,58.0,36.0,30.00,NW,321,10.0,14.0,44,0.00,,,0.00,,2013-02-19 02:22:00,
2013-02-18 20:33:00,58.0,36.0,30.01,WNW,303,7.0,14.0,44,0.00,,,0.00,,2013-02-19 02:33:00,
2013-02-18 20:42:00,58.0,36.0,30.01,WNW,303,7.0,14.0,44,0.00,,,0.00,,2013-02-19 02:42:00,
2013-02-18 20:54:00,57.0,35.0,30.01,NW,309,9.0,12.0,44,0.00,,,0.00,,2013-02-19 02:54:00,
2013-02-18 21:05:00,57.0,36.0,30.02,NW,308,7.0,12.0,45,0.00,,,0.00,,2013-02-19 03:05:00,
2013-02-18 21:13:00,57.0,36.0,30.02,NW,308,7.0,12.0,45,0.00,,,0.00,,2013-02-19 03:13:00,
2013-02-18 21:23:00,56.0,36.0,30.03,NW,313,5.0,10.0,46,0.00,,,0.00,,2013-02-19 03:23:00,
2013-02-18 21:33:00,56.0,36.0,30.04,NW,312,6.0,9.0,47,0.00,,,0.00,,2013-02-19 03:33:00,
2013-02-18 21:43:00,56.0,36.0,30.04,NW,312,6.0,9.0,47,0.00,,,0.00,,2013-02-19 03:43:00,
2013-02-18 21:54:00,55.0,36.0,30.05,NW,312,6.0,9.0,48,0.00,,,0.00,,2013-02-19 03:54:00,
2013-02-18 22:02:00,55.0,35.0,30.06,NW,311,6.0,9.0,47,0.00,,,0.00,,2013-02-19 04:02:00,
2013-02-18 22:13:00,55.0,35.0,30.06,NW,311,6.0,9.0,47,0.00,,,0.00,,2013-02-19 04:13:00,
2013-02-18 22:23:00,55.0,36.0,30.08,NW,310,3.0,6.0,48,0.00,,,0.00,,2013-02-19 04:23:00,
2013-02-18 22:33:00,54.0,35.0,30.09,NW,309,4.0,7.0,48,0.00,,,0.00,,2013-02-19 04:33:00,
2013-02-18 22:43:00,54.0,35.0,30.09,NW,309,4.0,7.0,48,0.00,,,0.00,,2013-02-19 04:43:00,
2013-02-18 22:54:00,54.0,35.0,30.09,NW,313,6.0,9.0,49,0.00,,,0.00,,2013-02-19 04:54:00,
2013-02-18 23:02:00,53.0,34.0,30.09,NW,321,6.0,12.0,48,0.00,,,0.00,,2013-02-19 05:02:00,
2013-02-18 23:12:00,53.0,34.0,30.09,NW,321,6.0,12.0,48,0.00,,,0.00,,2013-02-19 05:12:00,
2013-02-18 23:22:00,53.0,33.0,30.09,NNW,337,8.0,13.0,47,0.00,,,0.00,,2013-02-19 05:22:00,
2013-02-18 23:32:00,52.0,32.0,30.09,NNW,335,10.0,12.0,46,0.00,,,0.00,,2013-02-19 05:32:00,
2013-02-18 23:43:00,52.0,32.0,30.09,NNW,335,10.0,12.0,46,0.00,,,0.00,,2013-02-19 05:43:00,
2013-02-18 23:52:00,52.0,32.0,30.10,NNW,333,9.0,12.0,46,0.00,,,0.00,,2013-02-19 05:52:00,